sensor_id;sensor_type;location;lat;lon;timestamp;P1;durP1;ratioP1;P2;durP2;ratioP2
5841;SDS011;2947;52.276;9.946;2023-08-31T00:00:45;14.88;;;9.65;;
5841;SDS011;2947;52.276;9.946;2023-08-31T00:03:11;19.50;;;9.20;;
5841;SDS011;2947;52.276;9.946;2023-08-31T00:05:39;12.02;;;9.15;;
5841;SDS011;2947;52.276;9.946;2023-08-31T00:08:08;17.83;;;9.35;;
5841;SDS011;2947;52.276;9.946;2023-08-31T00:10:36;13.73;;;8.80;;
5841;SDS011;2947;52.276;9.946;2023-08-31T00:13:02;15.07;;;9.45;;
5841;SDS011;2947;52.276;9.946;2023-08-31T00:15:29;17.38;;;9.05;;
5841;SDS011;2947;52.276;9.946;2023-08-31T00:17:58;14.52;;;8.23;;
5841;SDS011;2947;52.276;9.946;2023-08-31T00:20:24;14.32;;;9.13;;
5841;SDS011;2947;52.276;9.946;2023-08-31T00:22:51;16.42;;;8.52;;
5841;SDS011;2947;52.276;9.946;2023-08-31T00:25:17;13.40;;;8.02;;
5841;SDS011;2947;52.276;9.946;2023-08-31T00:27:43;13.70;;;8.77;;
5841;SDS011;2947;52.276;9.946;2023-08-31T00:30:13;16.25;;;8.43;;
5841;SDS011;2947;52.276;9.946;2023-08-31T00:32:40;12.23;;;7.72;;
5841;SDS011;2947;52.276;9.946;2023-08-31T00:35:07;25.15;;;8.63;;
5841;SDS011;2947;52.276;9.946;2023-08-31T00:37:34;12.68;;;8.40;;
5841;SDS011;2947;52.276;9.946;2023-08-31T00:40:00;14.13;;;8.48;;
5841;SDS011;2947;52.276;9.946;2023-08-31T00:42:26;19.17;;;8.65;;
5841;SDS011;2947;52.276;9.946;2023-08-31T00:44:54;14.50;;;8.60;;
5841;SDS011;2947;52.276;9.946;2023-08-31T00:47:20;14.00;;;8.13;;
5841;SDS011;2947;52.276;9.946;2023-08-31T00:49:45;13.65;;;9.25;;
5841;SDS011;2947;52.276;9.946;2023-08-31T00:52:12;15.75;;;8.98;;
5841;SDS011;2947;52.276;9.946;2023-08-31T00:54:38;14.57;;;9.15;;
5841;SDS011;2947;52.276;9.946;2023-08-31T00:57:04;16.92;;;9.10;;
5841;SDS011;2947;52.276;9.946;2023-08-31T00:59:29;15.52;;;8.63;;
5841;SDS011;2947;52.276;9.946;2023-08-31T01:13:07;20.02;;;10.73;;
5841;SDS011;2947;52.276;9.946;2023-08-31T01:15:39;14.60;;;9.95;;
5841;SDS011;2947;52.276;9.946;2023-08-31T01:18:11;14.35;;;10.38;;
5841;SDS011;2947;52.276;9.946;2023-08-31T01:20:45;20.02;;;11.18;;
5841;SDS011;2947;52.276;9.946;2023-08-31T01:23:24;21.70;;;10.68;;
5841;SDS011;2947;52.276;9.946;2023-08-31T01:25:56;23.33;;;11.93;;
5841;SDS011;2947;52.276;9.946;2023-08-31T01:28:22;21.65;;;10.98;;
5841;SDS011;2947;52.276;9.946;2023-08-31T01:30:48;17.55;;;12.02;;
5841;SDS011;2947;52.276;9.946;2023-08-31T01:33:14;20.50;;;12.07;;
5841;SDS011;2947;52.276;9.946;2023-08-31T01:35:44;18.50;;;10.75;;
5841;SDS011;2947;52.276;9.946;2023-08-31T01:38:18;17.45;;;10.88;;
5841;SDS011;2947;52.276;9.946;2023-08-31T01:43:26;18.88;;;11.93;;
5841;SDS011;2947;52.276;9.946;2023-08-31T01:45:53;19.27;;;10.80;;
5841;SDS011;2947;52.276;9.946;2023-08-31T01:48:19;17.63;;;11.23;;
5841;SDS011;2947;52.276;9.946;2023-08-31T01:50:45;24.08;;;12.70;;
5841;SDS011;2947;52.276;9.946;2023-08-31T01:53:11;18.52;;;11.95;;
5841;SDS011;2947;52.276;9.946;2023-08-31T01:55:37;19.75;;;12.82;;
5841;SDS011;2947;52.276;9.946;2023-08-31T01:58:03;20.25;;;12.10;;
5841;SDS011;2947;52.276;9.946;2023-08-31T02:00:29;18.05;;;12.00;;
5841;SDS011;2947;52.276;9.946;2023-08-31T02:02:59;17.05;;;11.43;;
5841;SDS011;2947;52.276;9.946;2023-08-31T02:05:25;22.35;;;11.07;;
5841;SDS011;2947;52.276;9.946;2023-08-31T02:07:51;21.25;;;10.85;;
5841;SDS011;2947;52.276;9.946;2023-08-31T02:10:17;21.70;;;12.02;;
5841;SDS011;2947;52.276;9.946;2023-08-31T02:12:42;19.05;;;11.65;;
5841;SDS011;2947;52.276;9.946;2023-08-31T02:15:08;25.40;;;11.40;;
5841;SDS011;2947;52.276;9.946;2023-08-31T02:17:34;21.77;;;12.73;;
5841;SDS011;2947;52.276;9.946;2023-08-31T02:20:00;19.85;;;11.63;;
5841;SDS011;2947;52.276;9.946;2023-08-31T02:22:29;20.48;;;11.43;;
5841;SDS011;2947;52.276;9.946;2023-08-31T02:25:04;21.95;;;10.55;;
5841;SDS011;2947;52.276;9.946;2023-08-31T02:27:30;22.58;;;11.82;;
5841;SDS011;2947;52.276;9.946;2023-08-31T02:29:56;21.75;;;12.20;;
5841;SDS011;2947;52.276;9.946;2023-08-31T02:32:22;23.73;;;12.35;;
5841;SDS011;2947;52.276;9.946;2023-08-31T02:34:48;22.13;;;12.85;;
5841;SDS011;2947;52.276;9.946;2023-08-31T02:37:14;27.45;;;12.73;;
5841;SDS011;2947;52.276;9.946;2023-08-31T02:39:40;25.05;;;12.15;;
5841;SDS011;2947;52.276;9.946;2023-08-31T02:42:05;26.10;;;12.80;;
5841;SDS011;2947;52.276;9.946;2023-08-31T02:44:32;18.23;;;12.55;;
5841;SDS011;2947;52.276;9.946;2023-08-31T02:46:58;16.87;;;12.57;;
5841;SDS011;2947;52.276;9.946;2023-08-31T02:49:24;21.48;;;12.80;;
5841;SDS011;2947;52.276;9.946;2023-08-31T02:51:49;21.05;;;12.60;;
5841;SDS011;2947;52.276;9.946;2023-08-31T02:54:16;24.40;;;12.63;;
5841;SDS011;2947;52.276;9.946;2023-08-31T02:56:41;27.08;;;12.65;;
5841;SDS011;2947;52.276;9.946;2023-08-31T02:59:07;17.20;;;11.45;;
5841;SDS011;2947;52.276;9.946;2023-08-31T03:01:33;24.40;;;13.40;;
5841;SDS011;2947;52.276;9.946;2023-08-31T03:03:59;19.67;;;11.57;;
5841;SDS011;2947;52.276;9.946;2023-08-31T03:06:25;24.73;;;12.57;;
5841;SDS011;2947;52.276;9.946;2023-08-31T03:08:51;24.80;;;13.65;;
5841;SDS011;2947;52.276;9.946;2023-08-31T03:11:16;24.38;;;13.25;;
5841;SDS011;2947;52.276;9.946;2023-08-31T03:13:42;21.30;;;12.05;;
5841;SDS011;2947;52.276;9.946;2023-08-31T03:16:08;20.25;;;11.70;;
5841;SDS011;2947;52.276;9.946;2023-08-31T03:18:33;20.15;;;11.23;;
5841;SDS011;2947;52.276;9.946;2023-08-31T03:20:59;17.38;;;10.85;;
5841;SDS011;2947;52.276;9.946;2023-08-31T03:23:25;22.85;;;11.63;;
5841;SDS011;2947;52.276;9.946;2023-08-31T03:25:51;15.80;;;10.00;;
5841;SDS011;2947;52.276;9.946;2023-08-31T03:28:18;20.10;;;11.95;;
5841;SDS011;2947;52.276;9.946;2023-08-31T03:30:45;20.67;;;11.02;;
5841;SDS011;2947;52.276;9.946;2023-08-31T03:33:10;24.65;;;11.20;;
5841;SDS011;2947;52.276;9.946;2023-08-31T03:35:37;16.58;;;10.57;;
5841;SDS011;2947;52.276;9.946;2023-08-31T03:38:03;18.95;;;11.10;;
5841;SDS011;2947;52.276;9.946;2023-08-31T03:40:29;22.55;;;11.65;;
5841;SDS011;2947;52.276;9.946;2023-08-31T03:42:54;21.65;;;10.38;;
5841;SDS011;2947;52.276;9.946;2023-08-31T03:45:20;20.63;;;10.77;;
5841;SDS011;2947;52.276;9.946;2023-08-31T03:47:46;20.23;;;10.77;;
5841;SDS011;2947;52.276;9.946;2023-08-31T03:50:11;21.08;;;9.68;;
5841;SDS011;2947;52.276;9.946;2023-08-31T03:52:37;21.85;;;9.85;;
5841;SDS011;2947;52.276;9.946;2023-08-31T03:55:03;18.92;;;10.38;;
5841;SDS011;2947;52.276;9.946;2023-08-31T03:57:29;16.90;;;10.05;;
5841;SDS011;2947;52.276;9.946;2023-08-31T03:59:55;15.35;;;10.07;;
5841;SDS011;2947;52.276;9.946;2023-08-31T04:02:20;16.90;;;9.95;;
5841;SDS011;2947;52.276;9.946;2023-08-31T04:04:46;16.75;;;9.70;;
5841;SDS011;2947;52.276;9.946;2023-08-31T04:07:11;18.88;;;9.65;;
5841;SDS011;2947;52.276;9.946;2023-08-31T04:09:37;22.48;;;10.07;;
5841;SDS011;2947;52.276;9.946;2023-08-31T04:12:03;18.13;;;9.70;;
5841;SDS011;2947;52.276;9.946;2023-08-31T04:14:29;18.17;;;10.20;;
5841;SDS011;2947;52.276;9.946;2023-08-31T04:16:55;18.80;;;10.35;;
5841;SDS011;2947;52.276;9.946;2023-08-31T04:19:20;17.73;;;10.35;;
5841;SDS011;2947;52.276;9.946;2023-08-31T04:21:46;15.40;;;10.00;;
5841;SDS011;2947;52.276;9.946;2023-08-31T04:24:12;17.08;;;10.23;;
5841;SDS011;2947;52.276;9.946;2023-08-31T04:26:38;15.25;;;9.63;;
5841;SDS011;2947;52.276;9.946;2023-08-31T04:29:04;23.15;;;10.52;;
5841;SDS011;2947;52.276;9.946;2023-08-31T04:31:32;15.65;;;10.48;;
5841;SDS011;2947;52.276;9.946;2023-08-31T04:33:58;18.55;;;10.30;;
5841;SDS011;2947;52.276;9.946;2023-08-31T04:36:24;16.17;;;9.40;;
5841;SDS011;2947;52.276;9.946;2023-08-31T04:38:52;27.13;;;10.00;;
5841;SDS011;2947;52.276;9.946;2023-08-31T04:41:18;19.05;;;10.68;;
5841;SDS011;2947;52.276;9.946;2023-08-31T04:43:44;22.00;;;10.10;;
5841;SDS011;2947;52.276;9.946;2023-08-31T04:46:12;17.63;;;10.70;;
5841;SDS011;2947;52.276;9.946;2023-08-31T04:48:38;26.80;;;10.65;;
5841;SDS011;2947;52.276;9.946;2023-08-31T04:51:04;17.20;;;9.15;;
5841;SDS011;2947;52.276;9.946;2023-08-31T04:53:30;20.08;;;10.80;;
5841;SDS011;2947;52.276;9.946;2023-08-31T04:55:56;18.08;;;11.05;;
5841;SDS011;2947;52.276;9.946;2023-08-31T04:58:22;17.40;;;10.60;;
5841;SDS011;2947;52.276;9.946;2023-08-31T05:00:48;23.10;;;10.38;;
5841;SDS011;2947;52.276;9.946;2023-08-31T05:03:14;22.35;;;12.57;;
5841;SDS011;2947;52.276;9.946;2023-08-31T05:05:39;19.15;;;10.60;;
5841;SDS011;2947;52.276;9.946;2023-08-31T05:08:07;22.35;;;11.18;;
5841;SDS011;2947;52.276;9.946;2023-08-31T05:10:33;15.80;;;9.48;;
5841;SDS011;2947;52.276;9.946;2023-08-31T05:12:59;23.05;;;11.02;;
5841;SDS011;2947;52.276;9.946;2023-08-31T05:15:25;19.92;;;10.68;;
5841;SDS011;2947;52.276;9.946;2023-08-31T05:17:52;22.25;;;10.23;;
5841;SDS011;2947;52.276;9.946;2023-08-31T05:20:19;17.48;;;10.30;;
5841;SDS011;2947;52.276;9.946;2023-08-31T05:22:47;20.13;;;11.10;;
5841;SDS011;2947;52.276;9.946;2023-08-31T05:25:13;18.05;;;10.50;;
5841;SDS011;2947;52.276;9.946;2023-08-31T05:27:38;18.73;;;10.68;;
5841;SDS011;2947;52.276;9.946;2023-08-31T05:30:05;19.20;;;11.10;;
5841;SDS011;2947;52.276;9.946;2023-08-31T05:32:31;23.98;;;10.60;;
5841;SDS011;2947;52.276;9.946;2023-08-31T05:34:57;20.52;;;13.02;;
5841;SDS011;2947;52.276;9.946;2023-08-31T05:37:24;22.33;;;12.75;;
5841;SDS011;2947;52.276;9.946;2023-08-31T05:39:50;24.60;;;13.30;;
5841;SDS011;2947;52.276;9.946;2023-08-31T05:42:16;24.65;;;14.45;;
5841;SDS011;2947;52.276;9.946;2023-08-31T05:44:43;28.02;;;15.63;;
5841;SDS011;2947;52.276;9.946;2023-08-31T05:47:09;25.52;;;15.43;;
5841;SDS011;2947;52.276;9.946;2023-08-31T05:49:34;27.52;;;17.15;;
5841;SDS011;2947;52.276;9.946;2023-08-31T05:52:00;25.88;;;14.80;;
5841;SDS011;2947;52.276;9.946;2023-08-31T05:54:26;23.73;;;15.45;;
5841;SDS011;2947;52.276;9.946;2023-08-31T05:56:52;26.25;;;15.07;;
5841;SDS011;2947;52.276;9.946;2023-08-31T05:59:18;22.85;;;13.68;;
5841;SDS011;2947;52.276;9.946;2023-08-31T06:01:43;27.60;;;14.77;;
5841;SDS011;2947;52.276;9.946;2023-08-31T06:04:09;24.23;;;15.18;;
5841;SDS011;2947;52.276;9.946;2023-08-31T06:06:35;27.85;;;15.05;;
5841;SDS011;2947;52.276;9.946;2023-08-31T06:09:00;21.88;;;14.10;;
5841;SDS011;2947;52.276;9.946;2023-08-31T06:11:27;22.55;;;15.23;;
5841;SDS011;2947;52.276;9.946;2023-08-31T06:13:52;25.48;;;13.52;;
5841;SDS011;2947;52.276;9.946;2023-08-31T06:16:18;26.27;;;14.98;;
5841;SDS011;2947;52.276;9.946;2023-08-31T06:18:44;26.40;;;14.80;;
5841;SDS011;2947;52.276;9.946;2023-08-31T06:21:09;21.60;;;13.98;;
5841;SDS011;2947;52.276;9.946;2023-08-31T06:23:35;23.98;;;13.80;;
5841;SDS011;2947;52.276;9.946;2023-08-31T06:26:01;24.90;;;15.35;;
5841;SDS011;2947;52.276;9.946;2023-08-31T06:28:26;23.15;;;14.48;;
5841;SDS011;2947;52.276;9.946;2023-08-31T06:30:52;21.10;;;14.48;;
5841;SDS011;2947;52.276;9.946;2023-08-31T06:33:18;20.70;;;13.75;;
5841;SDS011;2947;52.276;9.946;2023-08-31T06:35:47;24.05;;;16.05;;
5841;SDS011;2947;52.276;9.946;2023-08-31T06:38:16;20.98;;;15.77;;
5841;SDS011;2947;52.276;9.946;2023-08-31T06:40:43;21.58;;;14.40;;
5841;SDS011;2947;52.276;9.946;2023-08-31T06:43:09;20.95;;;13.65;;
5841;SDS011;2947;52.276;9.946;2023-08-31T06:45:34;18.38;;;13.70;;
5841;SDS011;2947;52.276;9.946;2023-08-31T06:48:00;21.75;;;13.18;;
5841;SDS011;2947;52.276;9.946;2023-08-31T06:50:27;18.40;;;11.23;;
5841;SDS011;2947;52.276;9.946;2023-08-31T06:52:52;18.00;;;11.38;;
5841;SDS011;2947;52.276;9.946;2023-08-31T06:55:18;19.10;;;11.32;;
5841;SDS011;2947;52.276;9.946;2023-08-31T06:57:44;17.67;;;10.75;;
5841;SDS011;2947;52.276;9.946;2023-08-31T07:00:10;15.15;;;11.85;;
5841;SDS011;2947;52.276;9.946;2023-08-31T07:02:39;15.85;;;10.65;;
5841;SDS011;2947;52.276;9.946;2023-08-31T07:05:06;16.25;;;10.30;;
5841;SDS011;2947;52.276;9.946;2023-08-31T07:07:32;15.70;;;11.30;;
5841;SDS011;2947;52.276;9.946;2023-08-31T07:09:58;16.23;;;9.80;;
5841;SDS011;2947;52.276;9.946;2023-08-31T07:12:24;12.15;;;9.20;;
5841;SDS011;2947;52.276;9.946;2023-08-31T07:14:50;11.35;;;9.43;;
5841;SDS011;2947;52.276;9.946;2023-08-31T07:17:19;12.68;;;9.10;;
5841;SDS011;2947;52.276;9.946;2023-08-31T07:19:44;17.30;;;8.88;;
5841;SDS011;2947;52.276;9.946;2023-08-31T07:22:10;12.25;;;8.30;;
5841;SDS011;2947;52.276;9.946;2023-08-31T07:24:37;19.40;;;9.02;;
5841;SDS011;2947;52.276;9.946;2023-08-31T07:27:03;13.13;;;9.10;;
5841;SDS011;2947;52.276;9.946;2023-08-31T07:29:30;17.88;;;8.52;;
5841;SDS011;2947;52.276;9.946;2023-08-31T07:31:56;10.90;;;8.57;;
5841;SDS011;2947;52.276;9.946;2023-08-31T07:34:22;14.27;;;9.70;;
5841;SDS011;2947;52.276;9.946;2023-08-31T07:36:48;15.73;;;9.07;;
5841;SDS011;2947;52.276;9.946;2023-08-31T07:39:15;11.48;;;8.75;;
5841;SDS011;2947;52.276;9.946;2023-08-31T07:41:43;12.35;;;8.35;;
5841;SDS011;2947;52.276;9.946;2023-08-31T07:44:09;14.63;;;7.82;;
5841;SDS011;2947;52.276;9.946;2023-08-31T07:46:34;14.25;;;7.82;;
5841;SDS011;2947;52.276;9.946;2023-08-31T07:49:00;8.38;;;5.93;;
5841;SDS011;2947;52.276;9.946;2023-08-31T07:51:27;6.50;;;5.13;;
5841;SDS011;2947;52.276;9.946;2023-08-31T07:53:52;7.80;;;6.50;;
5841;SDS011;2947;52.276;9.946;2023-08-31T07:56:18;11.27;;;6.05;;
5841;SDS011;2947;52.276;9.946;2023-08-31T07:58:44;7.60;;;5.65;;
5841;SDS011;2947;52.276;9.946;2023-08-31T08:01:09;9.07;;;6.38;;
5841;SDS011;2947;52.276;9.946;2023-08-31T08:03:35;7.75;;;6.18;;
5841;SDS011;2947;52.276;9.946;2023-08-31T08:06:01;8.43;;;6.07;;
5841;SDS011;2947;52.276;9.946;2023-08-31T08:08:28;9.02;;;6.03;;
5841;SDS011;2947;52.276;9.946;2023-08-31T08:10:54;9.00;;;5.63;;
5841;SDS011;2947;52.276;9.946;2023-08-31T08:13:19;7.30;;;5.10;;
5841;SDS011;2947;52.276;9.946;2023-08-31T08:15:46;7.68;;;5.32;;
5841;SDS011;2947;52.276;9.946;2023-08-31T08:18:11;8.65;;;5.60;;
5841;SDS011;2947;52.276;9.946;2023-08-31T08:20:37;8.65;;;5.57;;
5841;SDS011;2947;52.276;9.946;2023-08-31T08:23:04;7.18;;;5.13;;
5841;SDS011;2947;52.276;9.946;2023-08-31T08:25:31;5.88;;;4.05;;
5841;SDS011;2947;52.276;9.946;2023-08-31T08:27:56;6.30;;;4.45;;
5841;SDS011;2947;52.276;9.946;2023-08-31T08:30:22;6.65;;;4.40;;
5841;SDS011;2947;52.276;9.946;2023-08-31T08:32:48;6.63;;;4.28;;
5841;SDS011;2947;52.276;9.946;2023-08-31T08:35:13;13.18;;;4.63;;
5841;SDS011;2947;52.276;9.946;2023-08-31T08:37:39;8.40;;;4.90;;
5841;SDS011;2947;52.276;9.946;2023-08-31T08:40:05;6.47;;;4.60;;
5841;SDS011;2947;52.276;9.946;2023-08-31T08:42:32;5.93;;;4.10;;
5841;SDS011;2947;52.276;9.946;2023-08-31T08:45:07;5.75;;;4.03;;
5841;SDS011;2947;52.276;9.946;2023-08-31T08:47:40;6.18;;;3.92;;
5841;SDS011;2947;52.276;9.946;2023-08-31T08:50:08;6.18;;;4.00;;
5841;SDS011;2947;52.276;9.946;2023-08-31T08:52:39;5.28;;;4.15;;
5841;SDS011;2947;52.276;9.946;2023-08-31T08:55:05;8.77;;;3.58;;
5841;SDS011;2947;52.276;9.946;2023-08-31T08:57:32;5.50;;;3.67;;
5841;SDS011;2947;52.276;9.946;2023-08-31T08:59:58;7.10;;;3.78;;
5841;SDS011;2947;52.276;9.946;2023-08-31T09:02:24;5.68;;;3.70;;
5841;SDS011;2947;52.276;9.946;2023-08-31T09:04:50;6.53;;;4.05;;
5841;SDS011;2947;52.276;9.946;2023-08-31T09:07:19;4.88;;;3.63;;
5841;SDS011;2947;52.276;9.946;2023-08-31T09:09:53;8.55;;;3.50;;
5841;SDS011;2947;52.276;9.946;2023-08-31T09:12:23;5.50;;;3.28;;
5841;SDS011;2947;52.276;9.946;2023-08-31T09:17:26;5.95;;;3.60;;
5841;SDS011;2947;52.276;9.946;2023-08-31T09:20:02;5.40;;;3.70;;
5841;SDS011;2947;52.276;9.946;2023-08-31T09:22:29;8.93;;;3.88;;
5841;SDS011;2947;52.276;9.946;2023-08-31T09:24:55;5.88;;;3.55;;
5841;SDS011;2947;52.276;9.946;2023-08-31T09:27:20;7.10;;;3.47;;
5841;SDS011;2947;52.276;9.946;2023-08-31T09:29:48;5.82;;;3.42;;
5841;SDS011;2947;52.276;9.946;2023-08-31T09:32:17;6.55;;;3.28;;
5841;SDS011;2947;52.276;9.946;2023-08-31T09:34:43;5.43;;;3.80;;
5841;SDS011;2947;52.276;9.946;2023-08-31T09:37:09;5.18;;;3.88;;
5841;SDS011;2947;52.276;9.946;2023-08-31T09:39:35;6.35;;;4.72;;
5841;SDS011;2947;52.276;9.946;2023-08-31T09:42:02;7.93;;;3.70;;
5841;SDS011;2947;52.276;9.946;2023-08-31T09:44:29;5.00;;;3.08;;
5841;SDS011;2947;52.276;9.946;2023-08-31T09:46:54;11.15;;;4.07;;
5841;SDS011;2947;52.276;9.946;2023-08-31T09:49:21;6.38;;;3.13;;
5841;SDS011;2947;52.276;9.946;2023-08-31T09:51:50;6.28;;;3.40;;
5841;SDS011;2947;52.276;9.946;2023-08-31T09:54:17;7.03;;;3.83;;
5841;SDS011;2947;52.276;9.946;2023-08-31T09:56:46;7.75;;;3.45;;
5841;SDS011;2947;52.276;9.946;2023-08-31T09:59:13;7.45;;;3.67;;
5841;SDS011;2947;52.276;9.946;2023-08-31T10:01:41;5.18;;;3.38;;
5841;SDS011;2947;52.276;9.946;2023-08-31T10:04:10;7.50;;;3.38;;
5841;SDS011;2947;52.276;9.946;2023-08-31T10:06:41;4.10;;;3.15;;
5841;SDS011;2947;52.276;9.946;2023-08-31T10:09:07;6.65;;;3.00;;
5841;SDS011;2947;52.276;9.946;2023-08-31T10:11:34;4.95;;;3.33;;
5841;SDS011;2947;52.276;9.946;2023-08-31T10:14:03;5.97;;;3.42;;
5841;SDS011;2947;52.276;9.946;2023-08-31T10:16:29;7.78;;;3.55;;
5841;SDS011;2947;52.276;9.946;2023-08-31T10:18:55;4.18;;;3.20;;
5841;SDS011;2947;52.276;9.946;2023-08-31T10:21:21;8.57;;;4.60;;
5841;SDS011;2947;52.276;9.946;2023-08-31T10:23:48;5.60;;;3.58;;
5841;SDS011;2947;52.276;9.946;2023-08-31T10:28:50;4.65;;;3.08;;
5841;SDS011;2947;52.276;9.946;2023-08-31T10:31:17;5.60;;;3.75;;
5841;SDS011;2947;52.276;9.946;2023-08-31T10:33:44;5.70;;;3.53;;
5841;SDS011;2947;52.276;9.946;2023-08-31T10:36:20;5.80;;;3.10;;
5841;SDS011;2947;52.276;9.946;2023-08-31T10:41:21;8.98;;;4.43;;
5841;SDS011;2947;52.276;9.946;2023-08-31T10:43:49;4.95;;;3.72;;
5841;SDS011;2947;52.276;9.946;2023-08-31T10:49:00;5.65;;;3.80;;
5841;SDS011;2947;52.276;9.946;2023-08-31T10:51:55;5.85;;;4.18;;
5841;SDS011;2947;52.276;9.946;2023-08-31T10:54:39;10.38;;;3.88;;
5841;SDS011;2947;52.276;9.946;2023-08-31T10:57:05;9.70;;;3.72;;
5841;SDS011;2947;52.276;9.946;2023-08-31T10:59:45;6.68;;;3.85;;
5841;SDS011;2947;52.276;9.946;2023-08-31T11:07:37;4.38;;;3.25;;
5841;SDS011;2947;52.276;9.946;2023-08-31T11:10:23;8.48;;;2.75;;
5841;SDS011;2947;52.276;9.946;2023-08-31T11:12:54;6.72;;;3.65;;
5841;SDS011;2947;52.276;9.946;2023-08-31T11:15:22;5.60;;;2.85;;
5841;SDS011;2947;52.276;9.946;2023-08-31T11:17:55;6.60;;;3.13;;
5841;SDS011;2947;52.276;9.946;2023-08-31T11:20:23;9.55;;;3.22;;
5841;SDS011;2947;52.276;9.946;2023-08-31T11:22:53;6.75;;;3.53;;
5841;SDS011;2947;52.276;9.946;2023-08-31T11:25:19;6.30;;;2.53;;
5841;SDS011;2947;52.276;9.946;2023-08-31T11:27:54;5.03;;;2.83;;
5841;SDS011;2947;52.276;9.946;2023-08-31T11:30:20;4.93;;;2.88;;
5841;SDS011;2947;52.276;9.946;2023-08-31T11:32:47;5.13;;;2.90;;
5841;SDS011;2947;52.276;9.946;2023-08-31T11:35:16;5.82;;;2.58;;
5841;SDS011;2947;52.276;9.946;2023-08-31T11:37:45;5.25;;;2.72;;
5841;SDS011;2947;52.276;9.946;2023-08-31T11:40:15;7.68;;;2.90;;
5841;SDS011;2947;52.276;9.946;2023-08-31T11:42:41;3.72;;;2.80;;
5841;SDS011;2947;52.276;9.946;2023-08-31T11:45:07;6.60;;;2.33;;
5841;SDS011;2947;52.276;9.946;2023-08-31T11:47:34;3.80;;;2.80;;
5841;SDS011;2947;52.276;9.946;2023-08-31T11:50:00;4.43;;;2.53;;
5841;SDS011;2947;52.276;9.946;2023-08-31T11:52:30;5.35;;;2.70;;
5841;SDS011;2947;52.276;9.946;2023-08-31T11:54:56;4.72;;;2.83;;
5841;SDS011;2947;52.276;9.946;2023-08-31T11:57:25;5.63;;;3.15;;
5841;SDS011;2947;52.276;9.946;2023-08-31T11:59:53;5.35;;;2.67;;
5841;SDS011;2947;52.276;9.946;2023-08-31T12:02:20;4.40;;;2.97;;
5841;SDS011;2947;52.276;9.946;2023-08-31T12:04:46;4.93;;;2.90;;
5841;SDS011;2947;52.276;9.946;2023-08-31T12:07:16;7.30;;;2.70;;
5841;SDS011;2947;52.276;9.946;2023-08-31T12:09:43;3.70;;;2.38;;
5841;SDS011;2947;52.276;9.946;2023-08-31T12:12:10;3.90;;;2.25;;
5841;SDS011;2947;52.276;9.946;2023-08-31T12:14:38;4.32;;;2.50;;
5841;SDS011;2947;52.276;9.946;2023-08-31T12:17:05;7.75;;;2.72;;
5841;SDS011;2947;52.276;9.946;2023-08-31T12:19:33;9.13;;;2.78;;
5841;SDS011;2947;52.276;9.946;2023-08-31T12:22:02;5.88;;;2.85;;
5841;SDS011;2947;52.276;9.946;2023-08-31T12:24:29;4.35;;;2.10;;
5841;SDS011;2947;52.276;9.946;2023-08-31T12:26:55;7.50;;;2.65;;
5841;SDS011;2947;52.276;9.946;2023-08-31T12:29:21;5.80;;;2.00;;
5841;SDS011;2947;52.276;9.946;2023-08-31T12:31:47;4.78;;;2.30;;
5841;SDS011;2947;52.276;9.946;2023-08-31T12:34:14;4.43;;;2.30;;
5841;SDS011;2947;52.276;9.946;2023-08-31T12:36:40;3.67;;;2.35;;
5841;SDS011;2947;52.276;9.946;2023-08-31T12:39:09;4.25;;;2.15;;
5841;SDS011;2947;52.276;9.946;2023-08-31T12:41:36;3.78;;;2.13;;
5841;SDS011;2947;52.276;9.946;2023-08-31T12:44:05;4.70;;;2.15;;
5841;SDS011;2947;52.276;9.946;2023-08-31T12:46:32;7.32;;;2.50;;
5841;SDS011;2947;52.276;9.946;2023-08-31T12:48:59;4.22;;;2.00;;
5841;SDS011;2947;52.276;9.946;2023-08-31T12:51:26;6.53;;;2.45;;
5841;SDS011;2947;52.276;9.946;2023-08-31T12:53:53;5.70;;;2.20;;
5841;SDS011;2947;52.276;9.946;2023-08-31T12:56:19;4.43;;;1.90;;
5841;SDS011;2947;52.276;9.946;2023-08-31T12:58:51;4.05;;;2.10;;
5841;SDS011;2947;52.276;9.946;2023-08-31T13:01:18;3.35;;;1.23;;
5841;SDS011;2947;52.276;9.946;2023-08-31T13:03:45;4.45;;;1.63;;
5841;SDS011;2947;52.276;9.946;2023-08-31T13:06:12;4.30;;;1.40;;
5841;SDS011;2947;52.276;9.946;2023-08-31T13:08:39;4.20;;;1.48;;
5841;SDS011;2947;52.276;9.946;2023-08-31T13:11:05;4.78;;;1.13;;
5841;SDS011;2947;52.276;9.946;2023-08-31T13:13:31;3.42;;;1.00;;
5841;SDS011;2947;52.276;9.946;2023-08-31T13:15:57;4.63;;;1.38;;
5841;SDS011;2947;52.276;9.946;2023-08-31T13:18:23;2.92;;;1.00;;
5841;SDS011;2947;52.276;9.946;2023-08-31T13:20:52;2.35;;;0.93;;
5841;SDS011;2947;52.276;9.946;2023-08-31T13:23:19;2.50;;;0.95;;
5841;SDS011;2947;52.276;9.946;2023-08-31T13:25:46;1.88;;;0.60;;
5841;SDS011;2947;52.276;9.946;2023-08-31T13:28:12;3.40;;;0.80;;
5841;SDS011;2947;52.276;9.946;2023-08-31T13:30:38;6.43;;;1.52;;
5841;SDS011;2947;52.276;9.946;2023-08-31T13:33:04;2.63;;;0.80;;
5841;SDS011;2947;52.276;9.946;2023-08-31T13:35:32;4.03;;;1.10;;
5841;SDS011;2947;52.276;9.946;2023-08-31T13:37:58;4.35;;;1.17;;
5841;SDS011;2947;52.276;9.946;2023-08-31T13:40:24;3.40;;;1.10;;
5841;SDS011;2947;52.276;9.946;2023-08-31T13:42:53;4.60;;;0.85;;
5841;SDS011;2947;52.276;9.946;2023-08-31T13:45:28;1.77;;;0.47;;
5841;SDS011;2947;52.276;9.946;2023-08-31T13:47:55;1.90;;;0.50;;
5841;SDS011;2947;52.276;9.946;2023-08-31T13:50:24;1.90;;;0.60;;
5841;SDS011;2947;52.276;9.946;2023-08-31T13:52:49;1.92;;;0.50;;
5841;SDS011;2947;52.276;9.946;2023-08-31T13:55:15;1.98;;;0.63;;
5841;SDS011;2947;52.276;9.946;2023-08-31T13:57:41;2.20;;;0.70;;
5841;SDS011;2947;52.276;9.946;2023-08-31T14:00:08;4.07;;;0.68;;
5841;SDS011;2947;52.276;9.946;2023-08-31T14:02:35;3.92;;;0.95;;
5841;SDS011;2947;52.276;9.946;2023-08-31T14:05:02;1.75;;;0.55;;
5841;SDS011;2947;52.276;9.946;2023-08-31T14:07:31;3.17;;;0.90;;
5841;SDS011;2947;52.276;9.946;2023-08-31T14:09:57;2.80;;;0.77;;
5841;SDS011;2947;52.276;9.946;2023-08-31T14:12:23;6.43;;;0.70;;
5841;SDS011;2947;52.276;9.946;2023-08-31T14:14:50;4.60;;;0.70;;
5841;SDS011;2947;52.276;9.946;2023-08-31T14:17:17;1.98;;;0.65;;
5841;SDS011;2947;52.276;9.946;2023-08-31T14:19:43;3.05;;;0.75;;
5841;SDS011;2947;52.276;9.946;2023-08-31T14:22:09;4.38;;;0.93;;
5841;SDS011;2947;52.276;9.946;2023-08-31T14:24:35;2.55;;;0.63;;
5841;SDS011;2947;52.276;9.946;2023-08-31T14:27:02;2.33;;;0.73;;
5841;SDS011;2947;52.276;9.946;2023-08-31T14:29:29;2.20;;;0.68;;
5841;SDS011;2947;52.276;9.946;2023-08-31T14:31:54;1.92;;;0.63;;
5841;SDS011;2947;52.276;9.946;2023-08-31T14:34:20;3.72;;;0.90;;
5841;SDS011;2947;52.276;9.946;2023-08-31T14:36:47;2.85;;;0.80;;
5841;SDS011;2947;52.276;9.946;2023-08-31T14:39:13;1.83;;;0.55;;
5841;SDS011;2947;52.276;9.946;2023-08-31T14:41:40;3.97;;;0.65;;
5841;SDS011;2947;52.276;9.946;2023-08-31T14:44:06;2.60;;;0.70;;
5841;SDS011;2947;52.276;9.946;2023-08-31T14:46:32;1.90;;;0.60;;
5841;SDS011;2947;52.276;9.946;2023-08-31T14:48:58;3.28;;;1.00;;
5841;SDS011;2947;52.276;9.946;2023-08-31T14:51:23;1.98;;;0.75;;
5841;SDS011;2947;52.276;9.946;2023-08-31T14:53:49;4.85;;;0.90;;
5841;SDS011;2947;52.276;9.946;2023-08-31T14:56:15;6.47;;;0.93;;
5841;SDS011;2947;52.276;9.946;2023-08-31T14:58:40;2.38;;;0.98;;
5841;SDS011;2947;52.276;9.946;2023-08-31T15:01:06;3.15;;;0.90;;
5841;SDS011;2947;52.276;9.946;2023-08-31T15:03:32;2.78;;;0.88;;
5841;SDS011;2947;52.276;9.946;2023-08-31T15:05:57;3.85;;;1.20;;
5841;SDS011;2947;52.276;9.946;2023-08-31T15:08:34;6.18;;;1.08;;
5841;SDS011;2947;52.276;9.946;2023-08-31T15:11:05;5.28;;;0.93;;
5841;SDS011;2947;52.276;9.946;2023-08-31T15:13:31;3.70;;;0.75;;
5841;SDS011;2947;52.276;9.946;2023-08-31T15:15:56;2.65;;;0.68;;
5841;SDS011;2947;52.276;9.946;2023-08-31T15:18:25;3.28;;;0.82;;
5841;SDS011;2947;52.276;9.946;2023-08-31T15:20:52;3.13;;;0.65;;
5841;SDS011;2947;52.276;9.946;2023-08-31T15:23:18;4.55;;;1.05;;
5841;SDS011;2947;52.276;9.946;2023-08-31T15:25:44;2.50;;;0.85;;
5841;SDS011;2947;52.276;9.946;2023-08-31T15:28:10;4.55;;;0.73;;
5841;SDS011;2947;52.276;9.946;2023-08-31T15:30:35;4.00;;;0.93;;